createdAt,value
2019-04-21T00:00:54.260Z,22.25
2019-04-21T00:03:25.833Z,20.50
2019-04-21T00:06:09.210Z,22.07
2019-04-21T00:08:46.926Z,24.75
2019-04-21T00:11:20.035Z,20.85
2019-04-21T00:13:38.168Z,20.00
2019-04-21T00:16:01.460Z,22.97
2019-04-21T00:18:50.637Z,25.97
2019-04-21T00:21:24.392Z,23.27
2019-04-21T00:24:00.375Z,28.80
2019-04-21T00:26:37.640Z,24.83
2019-04-21T00:29:16.439Z,30.83
2019-04-21T00:31:39.349Z,32.13
2019-04-21T00:33:53.734Z,26.97
2019-04-21T00:36:29.644Z,20.97
2019-04-21T00:39:28.790Z,23.50
2019-04-21T00:41:48.515Z,27.80
2019-04-21T00:44:08.686Z,22.30
2019-04-21T00:46:44.626Z,22.37
2019-04-21T00:49:17.005Z,26.10
2019-04-21T00:52:07.138Z,31.80
2019-04-21T00:54:34.708Z,21.90
2019-04-21T00:57:03.672Z,25.82
2019-04-21T00:59:34.967Z,24.97
2019-04-21T01:01:59.713Z,27.67
2019-04-21T01:04:37.101Z,25.17
2019-04-21T01:07:07.175Z,26.70
2019-04-21T01:09:31.679Z,27.43
2019-04-21T01:12:08.106Z,33.03
2019-04-21T01:14:43.535Z,29.20
2019-04-21T01:17:14.589Z,22.43
2019-04-21T01:19:38.796Z,25.20
2019-04-21T01:21:51.963Z,19.83
2019-04-21T01:24:28.899Z,21.30
2019-04-21T01:27:00.838Z,22.37
2019-04-21T01:29:45.919Z,29.50
2019-04-21T01:32:19.367Z,24.27
2019-04-21T01:34:47.018Z,27.50
2019-04-21T01:37:15.831Z,28.83
2019-04-21T01:39:53.515Z,27.50
2019-04-21T01:42:21.717Z,32.40
2019-04-21T01:44:59.956Z,24.10
2019-04-21T01:47:26.304Z,23.73
2019-04-21T01:49:52.566Z,23.47
2019-04-21T01:52:38.305Z,26.40
2019-04-21T01:55:10.790Z,24.35
2019-04-21T01:57:44.710Z,31.00
2019-04-21T02:00:13.581Z,24.15
2019-04-21T02:02:59.462Z,27.62
2019-04-21T02:05:34.512Z,35.05
2019-04-21T02:07:54.772Z,33.90
2019-04-21T02:10:34.572Z,26.83
2019-04-21T02:12:56.698Z,37.33
2019-04-21T02:15:35.997Z,30.23
2019-04-21T02:18:04.642Z,31.43
2019-04-21T02:20:25.715Z,28.20
2019-04-21T02:23:17.849Z,25.00
2019-04-21T02:25:38.594Z,30.90
2019-04-21T02:28:13.487Z,26.03
2019-04-21T02:30:56.570Z,31.83
2019-04-21T02:33:34.476Z,26.23
2019-04-21T02:36:00.542Z,30.97
2019-04-21T02:38:30.143Z,34.63
2019-04-21T02:48:34.673Z,28.47
2019-04-21T02:50:50.756Z,34.58
2019-04-21T02:53:39.136Z,35.13
2019-04-21T02:56:03.902Z,31.75
2019-04-21T02:58:44.053Z,31.27
2019-04-21T03:01:17.981Z,31.35
2019-04-21T03:03:41.741Z,27.82
2019-04-21T03:06:16.919Z,29.32
2019-04-21T03:08:49.960Z,29.70
2019-04-21T03:11:12.268Z,32.50
2019-04-21T03:16:23.388Z,43.87
2019-04-21T03:18:56.618Z,27.87
2019-04-21T03:21:26.307Z,37.90
2019-04-21T03:23:54.015Z,36.63
2019-04-21T03:26:28.960Z,32.97
2019-04-21T03:28:56.276Z,32.50
2019-04-21T03:36:56.853Z,36.90
2019-04-21T03:38:53.395Z,32.93
2019-04-21T03:49:11.964Z,34.65
2019-04-21T03:51:56.799Z,31.87
2019-04-21T03:59:09.630Z,45.87
2019-04-21T04:09:44.407Z,38.65
2019-04-21T04:11:58.304Z,35.48
2019-04-21T04:19:41.932Z,37.37
2019-04-21T04:32:07.947Z,37.47
2019-04-21T04:49:54.907Z,50.70
2019-04-21T04:52:32.526Z,41.53
2019-04-21T04:54:58.730Z,36.63
2019-04-21T04:57:47.175Z,43.97
2019-04-21T05:00:03.418Z,38.00
2019-04-21T05:14:59.335Z,44.10
2019-04-21T05:20:08.900Z,34.33
2019-04-21T05:22:28.003Z,38.90
2019-04-21T05:24:53.816Z,43.83
2019-04-21T05:27:39.993Z,42.37
2019-04-21T05:30:22.146Z,39.90
2019-04-21T05:32:52.829Z,38.58
2019-04-21T05:35:41.738Z,37.83
2019-04-21T05:38:10.438Z,41.40
2019-04-21T05:40:35.893Z,44.13
2019-04-21T05:43:06.241Z,41.33
2019-04-21T05:45:47.746Z,39.40
2019-04-21T05:48:24.217Z,40.20
2019-04-21T05:50:44.199Z,48.38
2019-04-21T05:53:26.069Z,39.90
2019-04-21T05:58:21.346Z,41.13
2019-04-21T06:03:41.108Z,39.38
2019-04-21T06:06:08.672Z,45.20
2019-04-21T06:08:39.092Z,49.10
2019-04-21T06:11:10.439Z,43.33
2019-04-21T06:13:46.458Z,43.20
2019-04-21T06:16:07.254Z,45.53
2019-04-21T06:21:11.512Z,45.37
2019-04-21T06:23:42.248Z,44.73
2019-04-21T06:26:43.410Z,47.60
2019-04-21T06:28:45.360Z,44.50
2019-04-21T06:31:30.292Z,43.50
2019-04-21T06:33:48.881Z,48.00
2019-04-21T06:39:19.614Z,43.92
2019-04-21T06:41:39.501Z,38.15
2019-04-21T06:44:18.078Z,41.40
2019-04-21T06:46:39.309Z,38.47
2019-04-21T06:49:08.576Z,40.20
2019-04-21T06:51:44.820Z,38.50
2019-04-21T06:54:14.335Z,33.55
2019-04-21T06:56:54.351Z,31.80
2019-04-21T06:59:13.488Z,37.83
2019-04-21T07:02:21.278Z,31.42
2019-04-21T07:04:22.546Z,30.67
2019-04-21T07:06:57.412Z,31.93
2019-04-21T07:09:25.436Z,36.05
2019-04-21T07:11:58.087Z,29.37
2019-04-21T07:17:06.726Z,30.40
2019-04-21T07:19:34.957Z,30.02
2019-04-21T07:22:09.091Z,33.13
2019-04-21T07:27:02.687Z,31.27
2019-04-21T07:29:45.304Z,30.95
2019-04-21T07:32:22.202Z,32.40
2019-04-21T07:34:38.445Z,30.60
2019-04-21T07:37:06.467Z,32.35
2019-04-21T07:39:36.775Z,30.85
2019-04-21T07:42:04.614Z,35.25
2019-04-21T07:44:35.157Z,32.13
2019-04-21T07:47:11.816Z,27.42
2019-04-21T07:49:56.562Z,33.13
2019-04-21T07:52:39.510Z,28.25
2019-04-21T07:55:18.626Z,31.62
2019-04-21T07:57:35.446Z,32.35
2019-04-21T08:02:43.745Z,27.80
2019-04-21T08:08:08.135Z,27.82
2019-04-21T08:10:15.733Z,28.80
2019-04-21T08:12:43.262Z,29.82
2019-04-21T08:15:23.452Z,31.50
2019-04-21T08:17:51.022Z,26.48
2019-04-21T08:20:19.863Z,29.55
2019-04-21T08:22:51.806Z,27.77
2019-04-21T08:25:21.901Z,31.35
2019-04-21T08:30:32.289Z,28.38
2019-04-21T08:36:03.066Z,30.16
2019-04-21T08:38:00.873Z,30.23
2019-04-21T08:43:01.986Z,25.72
2019-04-21T08:50:41.453Z,23.97
2019-04-21T08:53:07.109Z,26.05
2019-04-21T08:55:51.902Z,25.57
2019-04-21T08:58:25.296Z,27.03
2019-04-21T09:01:09.232Z,32.20
2019-04-21T09:03:57.156Z,25.90
2019-04-21T09:06:40.336Z,26.77
2019-04-21T09:09:14.742Z,25.10
2019-04-21T09:11:28.764Z,26.17
2019-04-21T09:14:05.195Z,27.50
2019-04-21T09:16:31.256Z,31.35
2019-04-21T09:18:56.969Z,27.57
2019-04-21T09:21:38.304Z,27.93
2019-04-21T09:24:05.628Z,25.35
2019-04-21T09:26:34.344Z,27.17
2019-04-21T09:29:01.819Z,29.10
2019-04-21T09:31:26.012Z,24.20
2019-04-21T09:33:57.291Z,25.57
2019-04-21T09:36:25.516Z,28.00
2019-04-21T09:39:02.478Z,25.48
2019-04-21T09:41:27.682Z,32.23
2019-04-21T09:43:57.916Z,27.42
2019-04-21T09:46:27.993Z,30.02
2019-04-21T09:49:02.692Z,30.50
2019-04-21T09:51:28.462Z,24.80
2019-04-21T09:54:05.749Z,33.33
2019-04-21T09:56:39.523Z,39.27
2019-04-21T09:59:10.085Z,27.62
2019-04-21T10:01:45.068Z,28.95
2019-04-21T10:04:05.465Z,27.65
2019-04-21T10:06:34.915Z,28.77
2019-04-21T10:09:10.240Z,30.16
2019-04-21T10:11:39.016Z,28.73
2019-04-21T10:14:09.580Z,29.13
2019-04-21T10:16:55.781Z,29.02
2019-04-21T10:19:25.611Z,34.67
2019-04-21T10:21:56.227Z,32.40
2019-04-21T10:24:26.432Z,33.38
2019-04-21T10:26:56.092Z,30.40
2019-04-21T10:29:29.370Z,31.23
2019-04-21T10:31:57.316Z,35.88
2019-04-21T10:34:27.333Z,31.82
2019-04-21T10:36:56.915Z,35.30
2019-04-21T10:39:27.360Z,35.78
2019-04-21T10:41:57.263Z,40.90
2019-04-21T10:44:27.342Z,36.75
2019-04-21T10:46:56.907Z,38.47
2019-04-21T10:49:26.654Z,37.75
2019-04-21T10:51:57.228Z,38.60
2019-04-21T10:54:37.906Z,42.10
2019-04-21T10:59:29.061Z,44.00
2019-04-21T11:02:00.938Z,39.67
2019-04-21T11:04:36.451Z,44.80
2019-04-21T11:07:10.755Z,44.17
2019-04-21T11:09:38.014Z,40.25
2019-04-21T11:12:08.253Z,44.30
2019-04-21T11:14:38.949Z,41.67
2019-04-21T11:17:10.525Z,41.86
2019-04-21T11:19:41.030Z,42.78
2019-04-21T11:22:10.592Z,40.97
2019-04-21T11:24:40.841Z,42.88
2019-04-21T11:27:10.920Z,44.47
2019-04-21T11:29:41.345Z,41.77
2019-04-21T11:32:11.039Z,43.23
2019-04-21T11:34:41.016Z,41.13
2019-04-21T11:37:12.436Z,36.00
2019-04-21T11:39:50.130Z,45.70
2019-04-21T11:44:45.052Z,29.65
2019-04-21T11:47:25.017Z,34.63
2019-04-21T11:49:54.926Z,38.05
2019-04-21T11:52:25.038Z,41.57
2019-04-21T11:54:55.079Z,36.80
2019-04-21T11:57:28.731Z,35.43
2019-04-21T11:59:55.797Z,37.15
2019-04-21T12:02:25.733Z,35.20
2019-04-21T12:04:55.437Z,36.48
2019-04-21T12:07:25.128Z,35.52
2019-04-21T12:09:55.589Z,34.53
2019-04-21T12:12:25.416Z,33.65
2019-04-21T12:14:54.925Z,31.57
2019-04-21T12:17:25.858Z,37.80
2019-04-21T12:19:56.820Z,37.08
2019-04-21T12:22:29.944Z,39.48
2019-04-21T12:24:58.084Z,43.00
2019-04-21T12:27:29.949Z,57.73
2019-04-21T12:30:01.907Z,33.10
2019-04-21T12:32:40.621Z,38.28
2019-04-21T12:35:12.291Z,39.90
2019-04-21T12:37:42.944Z,39.53
2019-04-21T12:40:12.978Z,40.23
2019-04-21T12:42:43.752Z,42.25
2019-04-21T12:45:17.295Z,38.83
2019-04-21T12:47:49.946Z,45.95
2019-04-21T12:50:18.302Z,35.17
2019-04-21T12:52:47.761Z,35.90
2019-04-21T12:55:17.657Z,35.23
2019-04-21T12:57:47.712Z,36.00
2019-04-21T13:00:20.749Z,37.23
2019-04-21T13:02:51.681Z,34.00
2019-04-21T13:05:21.982Z,34.63
2019-04-21T13:07:51.529Z,36.03
2019-04-21T13:10:22.229Z,32.50
2019-04-21T13:15:21.902Z,30.68
2019-04-21T13:17:52.247Z,31.10
2019-04-21T13:20:23.295Z,28.45
2019-04-21T13:25:21.857Z,32.90
2019-04-21T13:27:52.494Z,37.17
2019-04-21T13:30:22.341Z,28.80
2019-04-21T13:32:53.136Z,29.30
2019-04-21T13:35:23.304Z,26.17
2019-04-21T13:37:54.728Z,27.97
2019-04-21T13:40:45.022Z,31.57
2019-04-21T13:43:04.358Z,33.33
2019-04-21T13:45:34.278Z,36.23
2019-04-21T13:48:04.518Z,32.73
2019-04-21T13:50:35.287Z,32.13
2019-04-21T13:53:06.768Z,27.02
2019-04-21T13:55:38.960Z,28.27
2019-04-21T13:58:12.421Z,32.08
2019-04-21T14:00:43.749Z,35.58
2019-04-21T14:03:14.621Z,37.85
2019-04-21T14:05:46.551Z,29.90
2019-04-21T14:08:16.224Z,26.93
2019-04-21T14:10:47.201Z,34.90
2019-04-21T14:13:16.740Z,29.43
2019-04-21T14:15:48.228Z,26.65
2019-04-21T14:18:18.593Z,28.40
2019-04-21T14:20:49.224Z,31.40
2019-04-21T14:23:28.599Z,30.43
2019-04-21T14:25:51.141Z,33.35
2019-04-21T14:28:21.956Z,34.17
2019-04-21T14:30:52.530Z,30.68
2019-04-21T14:33:23.521Z,27.02
2019-04-21T14:35:54.644Z,31.15
2019-04-21T14:38:24.930Z,27.53
2019-04-21T14:40:54.607Z,26.70
2019-04-21T14:43:24.135Z,30.10
2019-04-21T14:46:04.015Z,28.73
2019-04-21T14:51:41.103Z,27.07
2019-04-21T14:54:12.257Z,29.92
2019-04-21T14:56:43.096Z,33.00
2019-04-21T14:59:12.945Z,24.57
2019-04-21T15:01:44.161Z,29.40
2019-04-21T15:04:16.838Z,25.07
2019-04-21T15:06:45.564Z,26.80
2019-04-21T15:09:15.333Z,24.00
2019-04-21T15:11:44.858Z,22.23
2019-04-21T15:14:15.809Z,24.53
2019-04-21T15:16:46.907Z,24.87
2019-04-21T15:19:16.862Z,25.60
2019-04-21T15:21:46.364Z,27.40
2019-04-21T15:24:18.659Z,37.28
2019-04-21T15:26:51.559Z,33.75
2019-04-21T15:29:20.454Z,32.38
2019-04-21T15:31:50.647Z,38.90
2019-04-21T15:34:22.488Z,25.65
2019-04-21T15:39:19.892Z,28.15
2019-04-21T15:41:50.595Z,55.15
2019-04-21T15:44:20.842Z,30.85
2019-04-21T15:46:50.427Z,37.00
2019-04-21T15:49:20.822Z,27.55
2019-04-21T15:51:51.562Z,27.50
2019-04-21T15:54:28.906Z,27.13
2019-04-21T15:56:58.601Z,48.17
2019-04-21T15:59:30.554Z,164.72
2019-04-21T16:02:18.799Z,421.77
2019-04-21T16:04:54.869Z,527.27
2019-04-21T16:07:24.588Z,583.65
2019-04-21T16:09:55.864Z,641.42
2019-04-21T16:12:25.701Z,148.32
2019-04-21T16:14:56.447Z,218.35
2019-04-21T16:17:27.465Z,65.22
2019-04-21T16:19:57.179Z,123.67
2019-04-21T16:22:26.736Z,38.48
2019-04-21T16:24:56.911Z,316.40
2019-04-21T16:27:27.687Z,196.60
2019-04-21T16:32:28.017Z,80.70
2019-04-21T16:35:03.265Z,29.17
2019-04-21T16:37:29.824Z,33.50
2019-04-21T16:39:59.465Z,35.08
2019-04-21T16:42:30.045Z,27.62
2019-04-21T16:45:00.878Z,30.27
2019-04-21T16:47:30.430Z,24.50
2019-04-21T16:50:01.527Z,28.15
2019-04-21T16:52:34.176Z,24.30
2019-04-21T16:55:08.684Z,23.47
2019-04-21T16:57:43.814Z,22.30
2019-04-21T17:00:26.971Z,23.38
2019-04-21T17:02:46.401Z,25.50
2019-04-21T17:05:16.294Z,24.07
2019-04-21T17:07:47.009Z,39.33
2019-04-21T17:10:17.081Z,26.07
2019-04-21T17:12:47.954Z,26.73
2019-04-21T17:15:32.369Z,28.17
2019-04-21T17:18:07.849Z,19.45
2019-04-21T17:20:35.731Z,27.10
2019-04-21T17:22:51.629Z,29.52
2019-04-21T17:25:24.317Z,23.00
2019-04-21T17:27:53.455Z,21.27
2019-04-21T17:30:24.292Z,22.60
2019-04-21T17:32:55.357Z,23.32
2019-04-21T17:37:54.344Z,22.13
2019-04-21T17:40:26.330Z,19.80
2019-04-21T17:43:02.042Z,25.97
2019-04-21T17:45:27.350Z,21.95
2019-04-21T17:48:03.214Z,19.70
2019-04-21T17:50:29.512Z,19.95
2019-04-21T17:53:10.770Z,19.23
2019-04-21T17:56:06.347Z,20.80
2019-04-21T17:58:36.241Z,15.72
2019-04-21T18:01:20.634Z,24.18
2019-04-21T18:03:53.647Z,20.15
2019-04-21T18:06:10.148Z,20.32
2019-04-21T18:08:54.792Z,24.92
2019-04-21T18:11:10.295Z,27.67
2019-04-21T18:13:32.859Z,22.27
2019-04-21T18:16:18.063Z,22.10
2019-04-21T18:18:34.913Z,25.77
2019-04-21T18:21:24.851Z,19.95
2019-04-21T18:24:05.737Z,21.57
2019-04-21T18:26:37.929Z,21.37
2019-04-21T18:29:03.537Z,25.70
2019-04-21T18:31:40.109Z,22.48
2019-04-21T18:36:49.764Z,19.37
2019-04-21T18:39:42.294Z,23.38
2019-04-21T18:42:18.920Z,22.62
2019-04-21T18:45:04.866Z,28.67
2019-04-21T18:47:28.856Z,23.55
2019-04-21T18:49:48.097Z,22.93
2019-04-21T18:52:32.256Z,37.45
2019-04-21T18:55:05.296Z,31.50
2019-04-21T18:59:53.422Z,45.25
2019-04-21T19:02:24.436Z,33.30
2019-04-21T19:05:00.283Z,32.10
2019-04-21T19:07:45.223Z,27.37
2019-04-21T19:10:21.990Z,23.65
2019-04-21T19:13:16.225Z,27.77
2019-04-21T19:15:15.995Z,25.97
2019-04-21T19:18:16.999Z,23.40
2019-04-21T19:20:26.056Z,31.20
2019-04-21T19:25:20.644Z,27.90
2019-04-21T19:30:36.700Z,27.40
2019-04-21T19:32:58.019Z,28.95
2019-04-21T19:35:27.606Z,25.57
2019-04-21T19:38:03.681Z,27.50
2019-04-21T19:40:47.385Z,30.88
2019-04-21T19:43:07.828Z,29.32
2019-04-21T19:45:44.952Z,23.65
2019-04-21T19:48:20.212Z,29.70
2019-04-21T19:50:51.549Z,25.32
2019-04-21T19:53:25.384Z,33.20
2019-04-21T19:55:40.477Z,26.57
2019-04-21T19:58:09.090Z,28.98
2019-04-21T20:00:40.404Z,32.83
2019-04-21T20:03:12.376Z,29.82
2019-04-21T20:05:49.511Z,26.23
2019-04-21T20:08:27.830Z,25.70
2019-04-21T20:11:04.075Z,25.88
2019-04-21T20:13:51.382Z,22.33
2019-04-21T20:16:06.561Z,22.20
2019-04-21T20:18:27.422Z,29.33
2019-04-21T20:20:52.191Z,37.00
2019-04-21T20:23:27.758Z,36.97
2019-04-21T20:25:58.180Z,47.53
2019-04-21T20:28:37.196Z,26.25
2019-04-21T20:31:14.752Z,22.93
2019-04-21T20:34:00.639Z,27.00
2019-04-21T20:36:23.809Z,27.73
2019-04-21T20:38:40.796Z,27.32
2019-04-21T20:41:16.115Z,26.12
2019-04-21T20:44:08.586Z,27.45
2019-04-21T20:46:38.869Z,24.37
2019-04-21T20:49:10.089Z,22.82
2019-04-21T20:51:42.488Z,22.77
2019-04-21T20:54:17.593Z,25.27
2019-04-21T20:56:42.017Z,27.50
2019-04-21T20:59:12.041Z,28.30
2019-04-21T21:01:44.406Z,25.00
2019-04-21T21:04:13.697Z,26.95
2019-04-21T21:06:45.506Z,23.83
2019-04-21T21:09:18.228Z,24.15
2019-04-21T21:12:09.559Z,25.90
2019-04-21T21:17:03.058Z,21.77
2019-04-21T21:19:37.735Z,22.77
2019-04-21T21:21:56.376Z,22.62
2019-04-21T21:26:58.040Z,26.07
2019-04-21T21:29:39.492Z,26.23
2019-04-21T21:34:53.517Z,27.25
2019-04-21T21:39:51.970Z,58.95
2019-04-21T21:42:05.742Z,43.20
2019-04-21T21:44:35.779Z,34.30
2019-04-21T21:49:54.036Z,31.00
2019-04-21T21:52:22.538Z,30.92
2019-04-21T21:54:41.239Z,24.70
2019-04-21T21:57:10.783Z,28.40
2019-04-21T21:59:41.781Z,25.95
2019-04-21T22:02:16.657Z,27.73
2019-04-21T22:04:59.856Z,32.42
2019-04-21T22:07:22.517Z,32.55
2019-04-21T22:09:50.351Z,35.83
2019-04-21T22:12:20.206Z,27.30
2019-04-21T22:14:55.375Z,30.97
2019-04-21T22:17:41.607Z,33.37
2019-04-21T22:20:13.324Z,29.23
2019-04-21T22:22:41.960Z,30.88
2019-04-21T22:25:06.950Z,33.20
2019-04-21T22:27:35.000Z,32.93
2019-04-21T22:30:12.490Z,29.67
2019-04-21T22:32:50.265Z,35.70
2019-04-21T22:35:22.503Z,36.10
2019-04-21T22:37:54.766Z,32.25
2019-04-21T22:40:25.898Z,36.15
2019-04-21T22:42:56.655Z,29.27
2019-04-21T22:45:23.125Z,29.73
2019-04-21T22:47:49.458Z,27.82
2019-04-21T22:50:32.774Z,32.20
2019-04-21T22:53:07.186Z,29.85
2019-04-21T22:55:35.269Z,31.73
2019-04-21T22:58:09.593Z,30.37
2019-04-21T23:00:47.325Z,33.95
2019-04-21T23:03:17.414Z,36.75
2019-04-21T23:05:45.145Z,33.40
2019-04-21T23:08:15.054Z,39.03
2019-04-21T23:10:49.686Z,40.90
2019-04-21T23:13:23.018Z,27.43
2019-04-21T23:15:53.632Z,28.20
2019-04-21T23:18:39.090Z,33.13
2019-04-21T23:21:08.822Z,34.05
2019-04-21T23:23:42.692Z,34.30
2019-04-21T23:26:07.592Z,34.33
2019-04-21T23:28:45.462Z,35.43
2019-04-21T23:31:11.087Z,32.42
2019-04-21T23:33:27.142Z,33.90
2019-04-21T23:36:05.226Z,37.08
2019-04-21T23:38:34.701Z,34.87
2019-04-21T23:41:03.468Z,42.95
2019-04-21T23:43:33.001Z,34.30
2019-04-21T23:46:09.044Z,35.83
2019-04-21T23:48:51.465Z,35.07
2019-04-21T23:51:16.002Z,40.65
2019-04-21T23:53:37.531Z,33.92
2019-04-21T23:56:07.597Z,37.65
2019-04-21T23:58:39.923Z,36.50
